sensor_id;sensor_type;location;lat;lon;timestamp;temperature;humidity
1590;DHT22;788;48.720;9.158;2022-08-19T00:02:19;20.40;99.90
1590;DHT22;788;48.720;9.158;2022-08-19T00:04:46;20.40;99.90
1590;DHT22;788;48.720;9.158;2022-08-19T00:07:18;20.40;99.90
1590;DHT22;788;48.720;9.158;2022-08-19T00:09:45;20.40;99.90
1590;DHT22;788;48.720;9.158;2022-08-19T00:12:12;20.40;99.90
1590;DHT22;788;48.720;9.158;2022-08-19T00:14:40;20.40;99.90
1590;DHT22;788;48.720;9.158;2022-08-19T00:17:08;20.40;99.90
1590;DHT22;788;48.720;9.158;2022-08-19T00:19:36;20.40;99.90
1590;DHT22;788;48.720;9.158;2022-08-19T00:22:04;20.40;99.90
1590;DHT22;788;48.720;9.158;2022-08-19T00:24:31;20.40;99.90
1590;DHT22;788;48.720;9.158;2022-08-19T00:26:58;20.30;99.90
1590;DHT22;788;48.720;9.158;2022-08-19T00:29:27;20.30;99.90
1590;DHT22;788;48.720;9.158;2022-08-19T00:31:56;20.30;99.90
1590;DHT22;788;48.720;9.158;2022-08-19T00:34:25;20.30;99.90
1590;DHT22;788;48.720;9.158;2022-08-19T00:36:54;20.30;99.90
1590;DHT22;788;48.720;9.158;2022-08-19T00:39:21;20.20;99.90
1590;DHT22;788;48.720;9.158;2022-08-19T00:41:49;20.20;99.90
1590;DHT22;788;48.720;9.158;2022-08-19T00:44:19;20.20;99.90
1590;DHT22;788;48.720;9.158;2022-08-19T00:46:48;20.10;99.90
1590;DHT22;788;48.720;9.158;2022-08-19T00:49:20;20.10;99.90
1590;DHT22;788;48.720;9.158;2022-08-19T00:51:54;20.10;99.90
1590;DHT22;788;48.720;9.158;2022-08-19T00:54:22;20.10;99.90
1590;DHT22;788;48.720;9.158;2022-08-19T00:56:49;20.00;99.90
1590;DHT22;788;48.720;9.158;2022-08-19T00:59:18;20.00;99.90
1590;DHT22;788;48.720;9.158;2022-08-19T01:01:46;20.00;99.90
1590;DHT22;788;48.720;9.158;2022-08-19T01:04:13;20.00;99.90
1590;DHT22;788;48.720;9.158;2022-08-19T01:06:41;19.90;99.90
1590;DHT22;788;48.720;9.158;2022-08-19T01:09:09;19.90;99.90
1590;DHT22;788;48.720;9.158;2022-08-19T01:11:39;19.90;99.90
1590;DHT22;788;48.720;9.158;2022-08-19T01:14:08;19.80;99.90
1590;DHT22;788;48.720;9.158;2022-08-19T01:16:36;19.80;99.90
1590;DHT22;788;48.720;9.158;2022-08-19T01:19:10;19.70;99.90
1590;DHT22;788;48.720;9.158;2022-08-19T01:21:43;19.70;99.90
1590;DHT22;788;48.720;9.158;2022-08-19T01:24:14;19.70;99.90
1590;DHT22;788;48.720;9.158;2022-08-19T01:26:42;19.70;99.90
1590;DHT22;788;48.720;9.158;2022-08-19T01:29:10;19.70;99.90
1590;DHT22;788;48.720;9.158;2022-08-19T01:31:37;19.70;99.90
1590;DHT22;788;48.720;9.158;2022-08-19T01:34:05;19.70;99.90
1590;DHT22;788;48.720;9.158;2022-08-19T01:36:36;19.70;99.90
1590;DHT22;788;48.720;9.158;2022-08-19T01:39:05;19.70;99.90
1590;DHT22;788;48.720;9.158;2022-08-19T01:41:34;19.70;99.90
1590;DHT22;788;48.720;9.158;2022-08-19T01:44:02;19.70;99.90
1590;DHT22;788;48.720;9.158;2022-08-19T01:46:29;19.70;99.90
1590;DHT22;788;48.720;9.158;2022-08-19T01:48:57;19.70;99.90
1590;DHT22;788;48.720;9.158;2022-08-19T01:51:24;19.70;99.90
1590;DHT22;788;48.720;9.158;2022-08-19T01:53:50;19.70;99.90
1590;DHT22;788;48.720;9.158;2022-08-19T01:56:18;19.70;99.90
1590;DHT22;788;48.720;9.158;2022-08-19T01:58:49;19.70;99.90
1590;DHT22;788;48.720;9.158;2022-08-19T02:01:18;19.70;99.90
1590;DHT22;788;48.720;9.158;2022-08-19T02:03:45;19.80;99.90
1590;DHT22;788;48.720;9.158;2022-08-19T02:06:12;19.70;99.90
1590;DHT22;788;48.720;9.158;2022-08-19T02:08:39;19.70;99.90
1590;DHT22;788;48.720;9.158;2022-08-19T02:11:06;19.70;99.90
1590;DHT22;788;48.720;9.158;2022-08-19T02:13:34;19.70;99.90
1590;DHT22;788;48.720;9.158;2022-08-19T02:16:02;19.70;99.90
1590;DHT22;788;48.720;9.158;2022-08-19T02:18:29;19.60;99.90
1590;DHT22;788;48.720;9.158;2022-08-19T02:20:56;19.60;99.90
1590;DHT22;788;48.720;9.158;2022-08-19T02:23:22;19.60;99.90
1590;DHT22;788;48.720;9.158;2022-08-19T02:25:51;19.60;99.90
1590;DHT22;788;48.720;9.158;2022-08-19T02:28:18;19.60;99.90
1590;DHT22;788;48.720;9.158;2022-08-19T02:30:45;19.60;99.90
1590;DHT22;788;48.720;9.158;2022-08-19T02:33:13;19.60;99.90
1590;DHT22;788;48.720;9.158;2022-08-19T02:35:41;19.70;99.90
1590;DHT22;788;48.720;9.158;2022-08-19T02:38:08;19.60;99.90
1590;DHT22;788;48.720;9.158;2022-08-19T02:40:56;19.60;99.90
1590;DHT22;788;48.720;9.158;2022-08-19T02:43:23;19.60;99.90
1590;DHT22;788;48.720;9.158;2022-08-19T02:45:51;19.60;99.90
1590;DHT22;788;48.720;9.158;2022-08-19T02:48:21;19.50;99.90
1590;DHT22;788;48.720;9.158;2022-08-19T02:50:50;19.50;99.90
1590;DHT22;788;48.720;9.158;2022-08-19T02:53:21;19.50;99.90
1590;DHT22;788;48.720;9.158;2022-08-19T02:55:48;19.40;99.90
1590;DHT22;788;48.720;9.158;2022-08-19T02:58:16;19.40;99.90
1590;DHT22;788;48.720;9.158;2022-08-19T03:00:45;19.40;99.90
1590;DHT22;788;48.720;9.158;2022-08-19T03:03:13;19.40;99.90
1590;DHT22;788;48.720;9.158;2022-08-19T03:05:41;19.30;99.90
1590;DHT22;788;48.720;9.158;2022-08-19T03:08:09;19.30;99.90
1590;DHT22;788;48.720;9.158;2022-08-19T03:10:41;19.40;99.90
1590;DHT22;788;48.720;9.158;2022-08-19T03:13:11;19.30;99.90
1590;DHT22;788;48.720;9.158;2022-08-19T03:15:40;19.30;99.90
1590;DHT22;788;48.720;9.158;2022-08-19T03:18:07;19.30;99.90
1590;DHT22;788;48.720;9.158;2022-08-19T03:20:34;19.30;99.90
1590;DHT22;788;48.720;9.158;2022-08-19T03:23:02;19.30;99.90
1590;DHT22;788;48.720;9.158;2022-08-19T03:25:28;19.20;99.90
1590;DHT22;788;48.720;9.158;2022-08-19T03:27:55;19.30;99.90
1590;DHT22;788;48.720;9.158;2022-08-19T03:30:22;19.30;99.90
1590;DHT22;788;48.720;9.158;2022-08-19T03:32:48;19.30;99.90
1590;DHT22;788;48.720;9.158;2022-08-19T03:35:15;19.30;99.90
1590;DHT22;788;48.720;9.158;2022-08-19T03:37:42;19.30;99.90
1590;DHT22;788;48.720;9.158;2022-08-19T03:40:10;19.30;99.90
1590;DHT22;788;48.720;9.158;2022-08-19T03:42:37;19.30;99.90
1590;DHT22;788;48.720;9.158;2022-08-19T03:45:06;19.30;99.90
1590;DHT22;788;48.720;9.158;2022-08-19T03:47:33;19.20;99.90
1590;DHT22;788;48.720;9.158;2022-08-19T03:50:00;19.30;99.90
1590;DHT22;788;48.720;9.158;2022-08-19T03:52:27;19.30;99.90
1590;DHT22;788;48.720;9.158;2022-08-19T03:54:54;19.30;99.90
1590;DHT22;788;48.720;9.158;2022-08-19T03:57:22;19.30;99.90
1590;DHT22;788;48.720;9.158;2022-08-19T03:59:48;19.30;99.90
1590;DHT22;788;48.720;9.158;2022-08-19T04:02:15;19.20;99.90
1590;DHT22;788;48.720;9.158;2022-08-19T04:04:43;19.20;99.90
1590;DHT22;788;48.720;9.158;2022-08-19T04:07:11;19.10;99.90
1590;DHT22;788;48.720;9.158;2022-08-19T04:09:41;19.10;99.90
1590;DHT22;788;48.720;9.158;2022-08-19T04:12:08;19.10;99.90
1590;DHT22;788;48.720;9.158;2022-08-19T04:14:36;19.10;99.90
1590;DHT22;788;48.720;9.158;2022-08-19T04:17:03;19.10;99.90
1590;DHT22;788;48.720;9.158;2022-08-19T04:19:31;19.00;99.90
1590;DHT22;788;48.720;9.158;2022-08-19T04:21:58;19.00;99.90
1590;DHT22;788;48.720;9.158;2022-08-19T04:24:25;19.00;99.90
1590;DHT22;788;48.720;9.158;2022-08-19T04:26:52;19.00;99.90
1590;DHT22;788;48.720;9.158;2022-08-19T04:29:21;19.00;99.90
1590;DHT22;788;48.720;9.158;2022-08-19T04:31:52;19.00;99.90
1590;DHT22;788;48.720;9.158;2022-08-19T04:34:21;19.00;99.90
1590;DHT22;788;48.720;9.158;2022-08-19T04:36:49;19.00;99.90
1590;DHT22;788;48.720;9.158;2022-08-19T04:39:19;19.00;99.90
1590;DHT22;788;48.720;9.158;2022-08-19T04:41:46;19.00;99.90
1590;DHT22;788;48.720;9.158;2022-08-19T04:44:30;19.00;99.90
1590;DHT22;788;48.720;9.158;2022-08-19T04:46:59;19.00;99.90
1590;DHT22;788;48.720;9.158;2022-08-19T04:49:26;18.90;99.90
1590;DHT22;788;48.720;9.158;2022-08-19T04:51:54;19.00;99.90
1590;DHT22;788;48.720;9.158;2022-08-19T04:54:22;19.00;99.90
1590;DHT22;788;48.720;9.158;2022-08-19T04:56:57;19.00;99.90
1590;DHT22;788;48.720;9.158;2022-08-19T04:59:23;19.10;99.90
1590;DHT22;788;48.720;9.158;2022-08-19T05:01:51;19.10;99.90
1590;DHT22;788;48.720;9.158;2022-08-19T05:04:24;19.10;99.90
1590;DHT22;788;48.720;9.158;2022-08-19T05:06:51;19.10;99.90
1590;DHT22;788;48.720;9.158;2022-08-19T05:09:18;19.20;99.90
1590;DHT22;788;48.720;9.158;2022-08-19T05:11:48;19.20;99.90
1590;DHT22;788;48.720;9.158;2022-08-19T05:14:18;19.20;99.90
1590;DHT22;788;48.720;9.158;2022-08-19T05:16:48;19.20;99.90
1590;DHT22;788;48.720;9.158;2022-08-19T05:19:18;19.20;99.90
1590;DHT22;788;48.720;9.158;2022-08-19T05:22:08;19.30;99.90
1590;DHT22;788;48.720;9.158;2022-08-19T05:24:52;19.30;99.90
1590;DHT22;788;48.720;9.158;2022-08-19T05:27:19;19.30;99.90
1590;DHT22;788;48.720;9.158;2022-08-19T05:29:47;19.40;99.90
1590;DHT22;788;48.720;9.158;2022-08-19T05:32:14;19.40;99.90
1590;DHT22;788;48.720;9.158;2022-08-19T05:34:41;19.40;99.90
1590;DHT22;788;48.720;9.158;2022-08-19T05:37:10;19.40;99.90
1590;DHT22;788;48.720;9.158;2022-08-19T05:39:38;19.40;99.90
1590;DHT22;788;48.720;9.158;2022-08-19T05:42:08;19.40;99.90
1590;DHT22;788;48.720;9.158;2022-08-19T05:44:38;19.40;99.90
1590;DHT22;788;48.720;9.158;2022-08-19T05:47:06;19.40;99.90
1590;DHT22;788;48.720;9.158;2022-08-19T05:49:34;19.40;99.90
1590;DHT22;788;48.720;9.158;2022-08-19T05:52:03;19.30;99.90
1590;DHT22;788;48.720;9.158;2022-08-19T05:54:32;19.30;99.90
1590;DHT22;788;48.720;9.158;2022-08-19T06:14:00;19.40;99.90
1590;DHT22;788;48.720;9.158;2022-08-19T06:16:57;19.40;99.90
1590;DHT22;788;48.720;9.158;2022-08-19T06:20:19;19.50;99.90
1590;DHT22;788;48.720;9.158;2022-08-19T06:22:49;19.50;99.90
1590;DHT22;788;48.720;9.158;2022-08-19T06:25:17;19.50;99.90
1590;DHT22;788;48.720;9.158;2022-08-19T06:27:44;19.50;99.90
1590;DHT22;788;48.720;9.158;2022-08-19T06:30:13;19.50;99.90
1590;DHT22;788;48.720;9.158;2022-08-19T06:32:40;19.60;99.90
1590;DHT22;788;48.720;9.158;2022-08-19T06:35:07;19.50;99.90
1590;DHT22;788;48.720;9.158;2022-08-19T06:37:34;19.50;99.90
1590;DHT22;788;48.720;9.158;2022-08-19T06:40:03;19.50;99.90
1590;DHT22;788;48.720;9.158;2022-08-19T06:42:31;19.50;99.90
1590;DHT22;788;48.720;9.158;2022-08-19T06:44:58;19.50;99.90
1590;DHT22;788;48.720;9.158;2022-08-19T06:47:29;19.50;99.90
1590;DHT22;788;48.720;9.158;2022-08-19T06:49:59;19.40;99.90
1590;DHT22;788;48.720;9.158;2022-08-19T06:52:28;19.40;99.90
1590;DHT22;788;48.720;9.158;2022-08-19T06:54:55;19.30;99.90
1590;DHT22;788;48.720;9.158;2022-08-19T06:57:22;19.20;99.90
1590;DHT22;788;48.720;9.158;2022-08-19T06:59:50;19.20;99.90
1590;DHT22;788;48.720;9.158;2022-08-19T07:02:20;19.20;99.90
1590;DHT22;788;48.720;9.158;2022-08-19T07:05:12;19.20;99.90
1590;DHT22;788;48.720;9.158;2022-08-19T07:07:51;19.20;99.90
1590;DHT22;788;48.720;9.158;2022-08-19T07:10:19;19.10;99.90
1590;DHT22;788;48.720;9.158;2022-08-19T07:12:48;19.10;99.90
1590;DHT22;788;48.720;9.158;2022-08-19T07:15:20;19.00;99.90
1590;DHT22;788;48.720;9.158;2022-08-19T07:18:06;19.00;99.90
1590;DHT22;788;48.720;9.158;2022-08-19T07:21:07;19.00;99.90
1590;DHT22;788;48.720;9.158;2022-08-19T07:23:39;19.00;99.90
1590;DHT22;788;48.720;9.158;2022-08-19T07:29:21;19.00;99.90
1590;DHT22;788;48.720;9.158;2022-08-19T07:31:53;19.00;99.90
1590;DHT22;788;48.720;9.158;2022-08-19T07:34:28;19.00;99.90
1590;DHT22;788;48.720;9.158;2022-08-19T07:37:09;18.90;99.90
1590;DHT22;788;48.720;9.158;2022-08-19T07:40:36;19.00;99.90
1590;DHT22;788;48.720;9.158;2022-08-19T07:50:24;18.90;99.90
1590;DHT22;788;48.720;9.158;2022-08-19T07:53:09;19.00;99.90
1590;DHT22;788;48.720;9.158;2022-08-19T07:56:02;19.00;99.90
1590;DHT22;788;48.720;9.158;2022-08-19T07:58:38;19.00;99.90
1590;DHT22;788;48.720;9.158;2022-08-19T08:01:22;19.00;99.90
1590;DHT22;788;48.720;9.158;2022-08-19T08:03:50;19.00;99.90
1590;DHT22;788;48.720;9.158;2022-08-19T08:06:34;18.90;99.90
1590;DHT22;788;48.720;9.158;2022-08-19T08:09:23;19.00;99.90
1590;DHT22;788;48.720;9.158;2022-08-19T08:11:53;18.90;99.90
1590;DHT22;788;48.720;9.158;2022-08-19T08:14:22;18.90;99.90
1590;DHT22;788;48.720;9.158;2022-08-19T08:16:50;18.90;99.90
1590;DHT22;788;48.720;9.158;2022-08-19T08:19:21;18.90;99.90
1590;DHT22;788;48.720;9.158;2022-08-19T08:21:50;18.80;99.90
1590;DHT22;788;48.720;9.158;2022-08-19T08:24:17;18.70;99.90
1590;DHT22;788;48.720;9.158;2022-08-19T08:26:45;18.70;99.90
1590;DHT22;788;48.720;9.158;2022-08-19T08:29:13;18.70;99.90
1590;DHT22;788;48.720;9.158;2022-08-19T08:31:46;18.60;99.90
1590;DHT22;788;48.720;9.158;2022-08-19T08:34:15;18.60;99.90
1590;DHT22;788;48.720;9.158;2022-08-19T08:37:11;18.50;99.90
1590;DHT22;788;48.720;9.158;2022-08-19T08:43:50;18.30;99.90
1590;DHT22;788;48.720;9.158;2022-08-19T08:46:21;18.20;99.90
1590;DHT22;788;48.720;9.158;2022-08-19T08:48:56;18.20;99.90
1590;DHT22;788;48.720;9.158;2022-08-19T08:51:27;18.20;99.90
1590;DHT22;788;48.720;9.158;2022-08-19T08:54:20;18.20;99.90
1590;DHT22;788;48.720;9.158;2022-08-19T08:56:53;18.10;99.90
1590;DHT22;788;48.720;9.158;2022-08-19T08:59:29;18.10;99.90
1590;DHT22;788;48.720;9.158;2022-08-19T09:02:00;18.20;99.90
1590;DHT22;788;48.720;9.158;2022-08-19T09:04:27;18.20;99.90
1590;DHT22;788;48.720;9.158;2022-08-19T09:07:01;18.30;99.90
1590;DHT22;788;48.720;9.158;2022-08-19T09:09:35;18.30;99.90
1590;DHT22;788;48.720;9.158;2022-08-19T09:12:12;18.40;99.90
1590;DHT22;788;48.720;9.158;2022-08-19T09:14:46;18.40;99.90
1590;DHT22;788;48.720;9.158;2022-08-19T09:17:15;18.40;99.90
1590;DHT22;788;48.720;9.158;2022-08-19T09:19:51;18.50;99.90
1590;DHT22;788;48.720;9.158;2022-08-19T09:22:18;18.50;99.90
1590;DHT22;788;48.720;9.158;2022-08-19T09:24:47;18.60;99.90
1590;DHT22;788;48.720;9.158;2022-08-19T09:27:14;18.60;99.90
1590;DHT22;788;48.720;9.158;2022-08-19T09:29:43;18.60;99.90
1590;DHT22;788;48.720;9.158;2022-08-19T09:32:10;18.70;99.90
1590;DHT22;788;48.720;9.158;2022-08-19T09:34:52;18.80;99.90
1590;DHT22;788;48.720;9.158;2022-08-19T09:37:20;18.80;99.90
1590;DHT22;788;48.720;9.158;2022-08-19T09:39:47;18.90;99.90
1590;DHT22;788;48.720;9.158;2022-08-19T09:42:15;18.90;99.90
1590;DHT22;788;48.720;9.158;2022-08-19T09:44:45;19.10;99.90
1590;DHT22;788;48.720;9.158;2022-08-19T09:47:16;19.10;99.90
1590;DHT22;788;48.720;9.158;2022-08-19T09:49:59;19.10;99.90
1590;DHT22;788;48.720;9.158;2022-08-19T09:52:37;19.10;99.90
1590;DHT22;788;48.720;9.158;2022-08-19T09:55:05;19.20;99.90
1590;DHT22;788;48.720;9.158;2022-08-19T09:57:33;19.20;99.90
1590;DHT22;788;48.720;9.158;2022-08-19T10:00:08;19.20;99.90
1590;DHT22;788;48.720;9.158;2022-08-19T10:02:36;19.20;99.90
1590;DHT22;788;48.720;9.158;2022-08-19T10:05:06;19.20;99.90
1590;DHT22;788;48.720;9.158;2022-08-19T10:07:54;19.20;99.90
1590;DHT22;788;48.720;9.158;2022-08-19T10:10:22;19.30;99.90
1590;DHT22;788;48.720;9.158;2022-08-19T10:13:04;19.40;99.90
1590;DHT22;788;48.720;9.158;2022-08-19T10:16:04;19.50;99.90
1590;DHT22;788;48.720;9.158;2022-08-19T10:18:56;19.60;99.90
1590;DHT22;788;48.720;9.158;2022-08-19T10:22:01;19.50;99.90
1590;DHT22;788;48.720;9.158;2022-08-19T10:24:29;19.40;99.90
1590;DHT22;788;48.720;9.158;2022-08-19T10:27:08;19.40;99.90
1590;DHT22;788;48.720;9.158;2022-08-19T10:30:03;19.30;99.90
1590;DHT22;788;48.720;9.158;2022-08-19T10:39:34;19.50;99.90
1590;DHT22;788;48.720;9.158;2022-08-19T10:42:27;19.50;99.90
1590;DHT22;788;48.720;9.158;2022-08-19T10:45:06;19.50;99.90
1590;DHT22;788;48.720;9.158;2022-08-19T10:47:37;19.50;99.90
1590;DHT22;788;48.720;9.158;2022-08-19T10:50:04;19.40;99.90
1590;DHT22;788;48.720;9.158;2022-08-19T10:52:51;19.40;99.90
1590;DHT22;788;48.720;9.158;2022-08-19T10:55:21;19.40;99.90
1590;DHT22;788;48.720;9.158;2022-08-19T10:58:10;19.30;99.90
1590;DHT22;788;48.720;9.158;2022-08-19T11:00:37;19.40;99.90
1590;DHT22;788;48.720;9.158;2022-08-19T11:03:05;19.50;99.90
1590;DHT22;788;48.720;9.158;2022-08-19T11:05:34;19.40;99.90
1590;DHT22;788;48.720;9.158;2022-08-19T11:08:03;19.40;99.90
1590;DHT22;788;48.720;9.158;2022-08-19T11:10:32;19.40;99.90
1590;DHT22;788;48.720;9.158;2022-08-19T11:12:58;19.40;99.90
1590;DHT22;788;48.720;9.158;2022-08-19T11:15:26;19.40;99.90
1590;DHT22;788;48.720;9.158;2022-08-19T11:17:54;19.50;99.90
1590;DHT22;788;48.720;9.158;2022-08-19T11:20:21;19.50;99.90
1590;DHT22;788;48.720;9.158;2022-08-19T11:22:51;19.60;99.90
1590;DHT22;788;48.720;9.158;2022-08-19T11:25:19;19.70;99.90
1590;DHT22;788;48.720;9.158;2022-08-19T11:27:47;19.80;99.90
1590;DHT22;788;48.720;9.158;2022-08-19T11:30:16;19.80;99.90
1590;DHT22;788;48.720;9.158;2022-08-19T11:32:43;19.90;99.90
1590;DHT22;788;48.720;9.158;2022-08-19T11:35:10;20.10;99.90
1590;DHT22;788;48.720;9.158;2022-08-19T11:37:37;20.20;99.90
1590;DHT22;788;48.720;9.158;2022-08-19T11:40:06;20.40;99.90
1590;DHT22;788;48.720;9.158;2022-08-19T11:42:33;20.60;99.90
1590;DHT22;788;48.720;9.158;2022-08-19T11:45:18;20.70;99.90
1590;DHT22;788;48.720;9.158;2022-08-19T11:47:45;20.90;99.90
1590;DHT22;788;48.720;9.158;2022-08-19T11:50:12;21.10;99.90
1590;DHT22;788;48.720;9.158;2022-08-19T11:52:39;21.40;99.90
1590;DHT22;788;48.720;9.158;2022-08-19T11:55:07;21.60;99.90
1590;DHT22;788;48.720;9.158;2022-08-19T11:57:34;21.80;99.90
1590;DHT22;788;48.720;9.158;2022-08-19T12:00:02;21.90;99.90
1590;DHT22;788;48.720;9.158;2022-08-19T12:02:31;21.90;99.90
1590;DHT22;788;48.720;9.158;2022-08-19T12:04:58;21.80;99.90
1590;DHT22;788;48.720;9.158;2022-08-19T12:07:28;21.80;99.90
1590;DHT22;788;48.720;9.158;2022-08-19T12:09:56;21.80;99.90
1590;DHT22;788;48.720;9.158;2022-08-19T12:12:23;22.00;99.90
1590;DHT22;788;48.720;9.158;2022-08-19T12:14:52;22.10;99.90
1590;DHT22;788;48.720;9.158;2022-08-19T12:17:22;22.10;99.90
1590;DHT22;788;48.720;9.158;2022-08-19T12:19:50;22.10;99.90
1590;DHT22;788;48.720;9.158;2022-08-19T12:22:19;22.30;99.90
1590;DHT22;788;48.720;9.158;2022-08-19T12:24:46;22.60;99.90
1590;DHT22;788;48.720;9.158;2022-08-19T12:27:15;22.60;99.90
1590;DHT22;788;48.720;9.158;2022-08-19T12:29:42;22.70;99.90
1590;DHT22;788;48.720;9.158;2022-08-19T12:32:09;22.90;99.90
1590;DHT22;788;48.720;9.158;2022-08-19T12:34:36;23.10;99.90
1590;DHT22;788;48.720;9.158;2022-08-19T12:37:05;23.10;99.90
1590;DHT22;788;48.720;9.158;2022-08-19T12:40:17;23.10;99.90
1590;DHT22;788;48.720;9.158;2022-08-19T12:42:58;23.20;99.90
1590;DHT22;788;48.720;9.158;2022-08-19T12:45:39;23.20;99.90
1590;DHT22;788;48.720;9.158;2022-08-19T12:48:08;23.10;99.90
1590;DHT22;788;48.720;9.158;2022-08-19T12:50:45;23.00;99.90
1590;DHT22;788;48.720;9.158;2022-08-19T12:53:14;22.90;99.90
1590;DHT22;788;48.720;9.158;2022-08-19T12:55:53;22.80;99.90
1590;DHT22;788;48.720;9.158;2022-08-19T12:58:25;22.70;99.90
1590;DHT22;788;48.720;9.158;2022-08-19T13:00:52;22.60;99.90
1590;DHT22;788;48.720;9.158;2022-08-19T13:03:19;22.40;99.90
1590;DHT22;788;48.720;9.158;2022-08-19T13:08:56;22.30;99.90
1590;DHT22;788;48.720;9.158;2022-08-19T13:11:26;22.30;99.90
1590;DHT22;788;48.720;9.158;2022-08-19T13:13:59;22.30;99.90
1590;DHT22;788;48.720;9.158;2022-08-19T13:16:34;22.20;99.90
1590;DHT22;788;48.720;9.158;2022-08-19T13:22:37;22.20;99.90
1590;DHT22;788;48.720;9.158;2022-08-19T13:28:57;22.30;99.90
1590;DHT22;788;48.720;9.158;2022-08-19T13:49:20;22.30;99.90
1590;DHT22;788;48.720;9.158;2022-08-19T13:52:13;22.10;99.90
1590;DHT22;788;48.720;9.158;2022-08-19T13:54:53;22.00;99.90
1590;DHT22;788;48.720;9.158;2022-08-19T15:41:23;23.10;99.90
1590;DHT22;788;48.720;9.158;2022-08-19T15:44:14;23.20;99.90
1590;DHT22;788;48.720;9.158;2022-08-19T15:47:19;23.40;99.90
1590;DHT22;788;48.720;9.158;2022-08-19T15:50:19;23.50;99.90
1590;DHT22;788;48.720;9.158;2022-08-19T16:15:00;24.90;99.90
1590;DHT22;788;48.720;9.158;2022-08-19T16:17:27;25.20;99.90
1590;DHT22;788;48.720;9.158;2022-08-19T16:19:54;25.40;99.90
1590;DHT22;788;48.720;9.158;2022-08-19T16:22:20;25.70;99.90
1590;DHT22;788;48.720;9.158;2022-08-19T16:24:55;26.00;99.90
1590;DHT22;788;48.720;9.158;2022-08-19T16:27:25;26.10;99.90
1590;DHT22;788;48.720;9.158;2022-08-19T16:29:55;26.20;99.90
1590;DHT22;788;48.720;9.158;2022-08-19T16:32:23;26.20;99.90
1590;DHT22;788;48.720;9.158;2022-08-19T16:34:50;26.20;99.90
1590;DHT22;788;48.720;9.158;2022-08-19T16:37:17;26.10;99.90
1590;DHT22;788;48.720;9.158;2022-08-19T16:39:46;25.90;99.90
1590;DHT22;788;48.720;9.158;2022-08-19T16:42:18;25.80;99.90
1590;DHT22;788;48.720;9.158;2022-08-19T16:44:48;25.70;99.90
1590;DHT22;788;48.720;9.158;2022-08-19T16:47:18;25.50;99.90
1590;DHT22;788;48.720;9.158;2022-08-19T16:49:48;25.30;99.90
1590;DHT22;788;48.720;9.158;2022-08-19T16:52:14;25.10;99.90
1590;DHT22;788;48.720;9.158;2022-08-19T16:54:41;24.80;99.90
1590;DHT22;788;48.720;9.158;2022-08-19T16:57:08;24.60;99.90
1590;DHT22;788;48.720;9.158;2022-08-19T16:59:35;24.20;99.90
1590;DHT22;788;48.720;9.158;2022-08-19T17:02:02;24.00;99.90
1590;DHT22;788;48.720;9.158;2022-08-19T17:04:29;23.90;99.90
1590;DHT22;788;48.720;9.158;2022-08-19T17:06:57;23.80;99.90
1590;DHT22;788;48.720;9.158;2022-08-19T17:09:24;23.60;99.90
1590;DHT22;788;48.720;9.158;2022-08-19T17:11:50;23.50;99.90
1590;DHT22;788;48.720;9.158;2022-08-19T17:14:17;23.30;99.90
1590;DHT22;788;48.720;9.158;2022-08-19T17:16:46;23.20;99.90
1590;DHT22;788;48.720;9.158;2022-08-19T17:19:13;23.00;99.90
1590;DHT22;788;48.720;9.158;2022-08-19T17:21:39;22.80;99.90
1590;DHT22;788;48.720;9.158;2022-08-19T17:24:09;22.60;99.90
1590;DHT22;788;48.720;9.158;2022-08-19T17:26:36;22.40;99.90
1590;DHT22;788;48.720;9.158;2022-08-19T17:29:04;22.30;99.90
1590;DHT22;788;48.720;9.158;2022-08-19T17:31:31;22.20;99.90
1590;DHT22;788;48.720;9.158;2022-08-19T17:33:59;22.10;99.90
1590;DHT22;788;48.720;9.158;2022-08-19T17:36:28;22.10;99.90
1590;DHT22;788;48.720;9.158;2022-08-19T17:38:56;22.20;99.90
1590;DHT22;788;48.720;9.158;2022-08-19T17:41:27;22.40;99.90
1590;DHT22;788;48.720;9.158;2022-08-19T17:43:54;22.50;99.90
1590;DHT22;788;48.720;9.158;2022-08-19T17:46:21;22.60;99.90
1590;DHT22;788;48.720;9.158;2022-08-19T17:48:50;22.60;99.90
1590;DHT22;788;48.720;9.158;2022-08-19T17:51:23;22.50;99.90
1590;DHT22;788;48.720;9.158;2022-08-19T17:53:51;22.50;99.90
1590;DHT22;788;48.720;9.158;2022-08-19T17:56:18;22.40;99.90
1590;DHT22;788;48.720;9.158;2022-08-19T17:58:46;22.30;99.90
1590;DHT22;788;48.720;9.158;2022-08-19T18:01:14;22.20;99.90
1590;DHT22;788;48.720;9.158;2022-08-19T18:03:41;22.10;99.90
1590;DHT22;788;48.720;9.158;2022-08-19T18:06:08;22.00;99.90
1590;DHT22;788;48.720;9.158;2022-08-19T18:08:36;21.90;99.90
1590;DHT22;788;48.720;9.158;2022-08-19T18:11:04;21.80;99.90
1590;DHT22;788;48.720;9.158;2022-08-19T18:13:31;21.70;99.90
1590;DHT22;788;48.720;9.158;2022-08-19T18:15:59;21.70;99.90
1590;DHT22;788;48.720;9.158;2022-08-19T18:18:25;21.60;99.90
1590;DHT22;788;48.720;9.158;2022-08-19T18:20:54;21.50;99.90
1590;DHT22;788;48.720;9.158;2022-08-19T18:23:21;21.50;99.90
1590;DHT22;788;48.720;9.158;2022-08-19T18:25:48;21.50;99.90
1590;DHT22;788;48.720;9.158;2022-08-19T18:28:15;21.40;99.90
1590;DHT22;788;48.720;9.158;2022-08-19T18:30:42;21.40;99.90
1590;DHT22;788;48.720;9.158;2022-08-19T18:33:10;21.40;99.90
1590;DHT22;788;48.720;9.158;2022-08-19T18:35:41;21.40;99.90
1590;DHT22;788;48.720;9.158;2022-08-19T18:38:11;21.40;99.90
1590;DHT22;788;48.720;9.158;2022-08-19T18:40:51;21.30;99.90
1590;DHT22;788;48.720;9.158;2022-08-19T18:43:36;21.30;99.90
1590;DHT22;788;48.720;9.158;2022-08-19T18:46:20;21.30;99.90
1590;DHT22;788;48.720;9.158;2022-08-19T18:49:06;21.20;99.90
1590;DHT22;788;48.720;9.158;2022-08-19T18:51:33;21.20;99.90
1590;DHT22;788;48.720;9.158;2022-08-19T18:54:00;21.20;99.90
1590;DHT22;788;48.720;9.158;2022-08-19T18:56:28;21.10;99.90
1590;DHT22;788;48.720;9.158;2022-08-19T18:58:57;21.10;99.90
1590;DHT22;788;48.720;9.158;2022-08-19T19:01:27;21.00;99.90
1590;DHT22;788;48.720;9.158;2022-08-19T19:03:58;20.90;99.90
1590;DHT22;788;48.720;9.158;2022-08-19T19:06:28;20.90;99.90
1590;DHT22;788;48.720;9.158;2022-08-19T19:08:56;20.90;99.90
1590;DHT22;788;48.720;9.158;2022-08-19T19:11:26;20.80;99.90
1590;DHT22;788;48.720;9.158;2022-08-19T19:13:53;20.80;99.90
1590;DHT22;788;48.720;9.158;2022-08-19T19:16:20;20.80;99.90
1590;DHT22;788;48.720;9.158;2022-08-19T19:18:47;20.70;99.90
1590;DHT22;788;48.720;9.158;2022-08-19T19:21:15;20.70;99.90
1590;DHT22;788;48.720;9.158;2022-08-19T19:23:44;20.70;99.90
1590;DHT22;788;48.720;9.158;2022-08-19T19:26:12;20.60;99.90
1590;DHT22;788;48.720;9.158;2022-08-19T19:28:45;20.60;99.90
1590;DHT22;788;48.720;9.158;2022-08-19T19:31:15;20.60;99.90
1590;DHT22;788;48.720;9.158;2022-08-19T19:33:42;20.60;99.90
1590;DHT22;788;48.720;9.158;2022-08-19T19:36:09;20.60;99.90
1590;DHT22;788;48.720;9.158;2022-08-19T19:38:37;20.60;99.90
1590;DHT22;788;48.720;9.158;2022-08-19T19:41:05;20.50;99.90
1590;DHT22;788;48.720;9.158;2022-08-19T19:43:32;20.50;99.90
1590;DHT22;788;48.720;9.158;2022-08-19T19:46:01;20.50;99.90
1590;DHT22;788;48.720;9.158;2022-08-19T19:48:28;20.60;99.90
1590;DHT22;788;48.720;9.158;2022-08-19T19:50:55;20.60;99.90
1590;DHT22;788;48.720;9.158;2022-08-19T19:53:23;20.50;99.90
1590;DHT22;788;48.720;9.158;2022-08-19T19:55:50;20.50;99.90